CHICAGO AURORA MUNICIPAL, IL, United States (KARR) 41-46N 088-28W 215M
Wind: from the ENE (070 degrees) at 3 MPH (3 KT):0
Visibility: 2 1/2 mile(s):0
Sky conditions: mostly clear
Weather: mist
Temperature: 66.0 F (18.9 C)
Dew Point: 64.9 F (18.3 C)
Relative Humidity: 96%
Pressure (altimeter): 29.95 in. Hg (1014 hPa)
ob: KARR 200909Z AUTO 07003KT 2 1/2SM BR FEW100 19/18 A2995 RMK AO2 T01890183
Raw METAR:KARR 200909Z AUTO 07003KT 2 1/2SM BR FEW100 19/18 A2995 RMK AO2 T01890183
cycle: 9
Back to top

CHICAGO/WEST CH DUPAGE, IL, United States (KDPA) 41-54N 88-15W 230M
Wind: Calm:0
Visibility: 3 mile(s):0
Sky conditions: mostly clear
Weather: mist
Temperature: 66.0 F (18.9 C)
Dew Point: 63.0 F (17.2 C)
Relative Humidity: 89%
Pressure (altimeter): 29.95 in. Hg (1014 hPa)
Pressure tendency: 0.03 inches (1.1 hPa) lower than three hours ago
ob: KDPA 200852Z 00000KT 3SM BR FEW003 19/17 A2995 RMK AO2 SLP138 T01890172 58011
Raw METAR:KDPA 200852Z 00000KT 3SM BR FEW003 19/17 A2995 RMK AO2 SLP138 T01890172 58011
cycle: 9
Back to top

De Kalb, De Kalb Taylor Municipal Airport, IL, United States (KDKB) 41-55-55N 088-42-30W
Wind: from the E (080 degrees) at 5 MPH (4 KT):0
Visibility: 1/2 mile(s):0
Sky conditions: overcast
Weather: fog
Temperature: 64.9 F (18.3 C)
Dew Point: 64.9 F (18.3 C)
Relative Humidity: 100%
Pressure (altimeter): 29.96 in. Hg (1014 hPa)
ob: KDKB 200915Z AUTO 08004KT 1/2SM FG OVC003 18/18 A2996 RMK AO2 T01830183
Raw METAR:KDKB 200915Z AUTO 08004KT 1/2SM FG OVC003 18/18 A2996 RMK AO2 T01830183
cycle: 9
Back to top

Joliet, Joliet Regional Airport, IL, United States (KJOT) 41-31-05N 088-10-31W
Wind: Calm:0
Visibility: 4 mile(s):0
Sky conditions: clear
Weather: mist
Temperature: 66.7 F (19.3 C)
Dew Point: 66.7 F (19.3 C)
Relative Humidity: 100%
Pressure (altimeter): 29.95 in. Hg (1014 hPa)
ob: KJOT 200915Z AUTO 00000KT 4SM BR CLR 19/19 A2995 RMK AO2 T01930193
Raw METAR:KJOT 200915Z AUTO 00000KT 4SM BR CLR 19/19 A2995 RMK AO2 T01930193
cycle: 9
Back to top

Kankakee, Greater Kankakee Airport, IL, United States (KIKK) 41-04-17N 087-50-47W
Wind: Calm:0
Visibility: 10 mile(s):0
Sky conditions: clear
Temperature: 67.5 F (19.7 C)
Dew Point: 66.7 F (19.3 C)
Relative Humidity: 97%
Pressure (altimeter): 29.97 in. Hg (1014 hPa)
ob: KIKK 200915Z AUTO 00000KT 10SM CLR 20/19 A2997 RMK AO2 T01970193
Raw METAR:KIKK 200915Z AUTO 00000KT 10SM CLR 20/19 A2997 RMK AO2 T01970193
cycle: 9
Back to top

Morris, Morris Municipal-James R Washburn Field Airport, IL, United States (KC09) 41-25-31N 088-25-07W
Wind: Calm:0
Visibility: 2 mile(s):0
Sky conditions: clear
Weather: mist
Temperature: 63.9 F (17.7 C)
Dew Point: 63.5 F (17.5 C)
Relative Humidity: 98%
Pressure (altimeter): 29.94 in. Hg (1013 hPa)
ob: KC09 200915Z AUTO 00000KT 2SM BR CLR 18/18 A2994 RMK AO2 T01770175
Raw METAR:KC09 200915Z AUTO 00000KT 2SM BR CLR 18/18 A2994 RMK AO2 T01770175
cycle: 9
Back to top

Peru, Illinois Valley Regional-Walter A Duncan Field Airport, IL, United States (KVYS) 41-21-07N 089-09-11W
Wind: from the E (100 degrees) at 3 MPH (3 KT):0
Visibility: 5 mile(s):0
Sky conditions: clear
Weather: mist
Temperature: 66.2 F (19.0 C)
Dew Point: 64.4 F (18.0 C)
Relative Humidity: 93%
Pressure (altimeter): 29.95 in. Hg (1014 hPa)
ob: KVYS 200915Z AUTO 10003KT 5SM BR CLR 19/18 A2995 RMK AO2 T01900180
Raw METAR:KVYS 200915Z AUTO 10003KT 5SM BR CLR 19/18 A2995 RMK AO2 T01900180
cycle: 9
Back to top

Rochelle, Rochelle Municipal-Koritz Field Airport, IL, United States (KRPJ) 41-53-35N 089-04-42W
Wind: from the NNE (020 degrees) at 3 MPH (3 KT):0
Visibility: 1/2 mile(s):0
Sky conditions: overcast
Weather: fog
Temperature: 64.4 F (18.0 C)
Dew Point: 64.4 F (18.0 C)
Relative Humidity: 100%
Pressure (altimeter): 29.96 in. Hg (1014 hPa)
ob: KRPJ 200915Z AUTO 02003KT 1/2SM FG OVC003 18/18 A2996 RMK AO2 T01800180
Raw METAR:KRPJ 200915Z AUTO 02003KT 1/2SM FG OVC003 18/18 A2996 RMK AO2 T01800180
cycle: 9
Back to top